sensor_id;sensor_type;location;lat;lon;timestamp;temperature;humidity
66670;DHT22;53568;52.164;4.472;2023-03-01T00:00:15;3.87;75.70
66670;DHT22;53568;52.164;4.472;2023-03-01T00:02:40;3.90;75.90
66670;DHT22;53568;52.164;4.472;2023-03-01T00:05:06;3.96;75.92
66670;DHT22;53568;52.164;4.472;2023-03-01T00:07:33;3.99;75.95
66670;DHT22;53568;52.164;4.472;2023-03-01T00:09:58;4.09;75.80
66670;DHT22;53568;52.164;4.472;2023-03-01T00:12:23;4.04;75.86
66670;DHT22;53568;52.164;4.472;2023-03-01T00:14:49;3.99;76.82
66670;DHT22;53568;52.164;4.472;2023-03-01T00:17:15;4.04;77.03
66670;DHT22;53568;52.164;4.472;2023-03-01T00:19:40;4.04;76.63
66670;DHT22;53568;52.164;4.472;2023-03-01T00:22:06;4.06;77.03
66670;DHT22;53568;52.164;4.472;2023-03-01T00:24:31;4.07;77.19
66670;DHT22;53568;52.164;4.472;2023-03-01T00:26:57;4.00;78.00
66670;DHT22;53568;52.164;4.472;2023-03-01T00:29:24;4.06;77.80
66670;DHT22;53568;52.164;4.472;2023-03-01T00:31:50;4.03;78.14
66670;DHT22;53568;52.164;4.472;2023-03-01T00:34:15;4.10;78.13
66670;DHT22;53568;52.164;4.472;2023-03-01T00:36:41;4.10;78.34
66670;DHT22;53568;52.164;4.472;2023-03-01T00:39:12;4.09;78.51
66670;DHT22;53568;52.164;4.472;2023-03-01T00:41:37;4.03;78.43
66670;DHT22;53568;52.164;4.472;2023-03-01T00:44:03;3.99;79.45
66670;DHT22;53568;52.164;4.472;2023-03-01T00:46:29;4.21;78.40
66670;DHT22;53568;52.164;4.472;2023-03-01T00:48:55;3.99;79.34
66670;DHT22;53568;52.164;4.472;2023-03-01T00:51:27;3.89;79.83
66670;DHT22;53568;52.164;4.472;2023-03-01T00:53:55;3.90;80.13
66670;DHT22;53568;52.164;4.472;2023-03-01T00:56:22;3.79;80.66
66670;DHT22;53568;52.164;4.472;2023-03-01T00:58:48;3.91;80.40
66670;DHT22;53568;52.164;4.472;2023-03-01T01:01:20;3.70;81.23
66670;DHT22;53568;52.164;4.472;2023-03-01T01:03:57;3.73;81.55
66670;DHT22;53568;52.164;4.472;2023-03-01T01:06:27;3.87;80.96
66670;DHT22;53568;52.164;4.472;2023-03-01T01:08:54;3.96;80.49
66670;DHT22;53568;52.164;4.472;2023-03-01T01:11:22;3.87;80.15
66670;DHT22;53568;52.164;4.472;2023-03-01T01:13:48;3.96;80.19
66670;DHT22;53568;52.164;4.472;2023-03-01T01:16:16;4.00;80.05
66670;DHT22;53568;52.164;4.472;2023-03-01T01:18:43;3.79;80.79
66670;DHT22;53568;52.164;4.472;2023-03-01T01:21:12;3.72;81.53
66670;DHT22;53568;52.164;4.472;2023-03-01T01:23:39;3.91;80.95
66670;DHT22;53568;52.164;4.472;2023-03-01T01:26:07;3.94;80.75
66670;DHT22;53568;52.164;4.472;2023-03-01T01:28:33;3.87;80.96
66670;DHT22;53568;52.164;4.472;2023-03-01T01:30:59;3.82;81.35
66670;DHT22;53568;52.164;4.472;2023-03-01T01:33:24;3.80;81.52
66670;DHT22;53568;52.164;4.472;2023-03-01T01:35:50;3.80;81.57
66670;DHT22;53568;52.164;4.472;2023-03-01T01:38:15;3.75;81.53
66670;DHT22;53568;52.164;4.472;2023-03-01T01:40:45;3.79;81.74
66670;DHT22;53568;52.164;4.472;2023-03-01T01:43:22;3.67;82.11
66670;DHT22;53568;52.164;4.472;2023-03-01T01:45:49;3.72;81.81
66670;DHT22;53568;52.164;4.472;2023-03-01T01:48:24;3.70;82.18
66670;DHT22;53568;52.164;4.472;2023-03-01T01:50:59;3.46;83.00
66670;DHT22;53568;52.164;4.472;2023-03-01T01:53:26;3.58;82.54
66670;DHT22;53568;52.164;4.472;2023-03-01T01:55:55;3.52;83.16
66670;DHT22;53568;52.164;4.472;2023-03-01T01:58:27;3.39;83.44
66670;DHT22;53568;52.164;4.472;2023-03-01T02:00:55;3.39;83.66
66670;DHT22;53568;52.164;4.472;2023-03-01T02:03:26;3.48;83.20
66670;DHT22;53568;52.164;4.472;2023-03-01T02:06:19;3.62;82.69
66670;DHT22;53568;52.164;4.472;2023-03-01T02:08:49;3.53;82.99
66670;DHT22;53568;52.164;4.472;2023-03-01T02:11:17;3.58;82.71
66670;DHT22;53568;52.164;4.472;2023-03-01T02:13:44;3.49;82.76
66670;DHT22;53568;52.164;4.472;2023-03-01T02:16:14;3.60;82.89
66670;DHT22;53568;52.164;4.472;2023-03-01T02:18:42;3.67;82.36
66670;DHT22;53568;52.164;4.472;2023-03-01T02:23:40;3.46;83.17
66670;DHT22;53568;52.164;4.472;2023-03-01T02:28:42;3.67;82.52
66670;DHT22;53568;52.164;4.472;2023-03-01T02:31:10;3.69;82.35
66670;DHT22;53568;52.164;4.472;2023-03-01T02:33:58;3.42;83.54
66670;DHT22;53568;52.164;4.472;2023-03-01T02:36:31;3.52;82.75
66670;DHT22;53568;52.164;4.472;2023-03-01T02:39:00;3.67;82.69
66670;DHT22;53568;52.164;4.472;2023-03-01T02:41:31;3.66;82.25
66670;DHT22;53568;52.164;4.472;2023-03-01T02:43:57;3.76;82.30
66670;DHT22;53568;52.164;4.472;2023-03-01T02:46:25;3.66;82.76
66670;DHT22;53568;52.164;4.472;2023-03-01T02:48:57;3.60;82.86
66670;DHT22;53568;52.164;4.472;2023-03-01T02:56:59;3.51;83.24
66670;DHT22;53568;52.164;4.472;2023-03-01T02:59:29;3.51;83.26
66670;DHT22;53568;52.164;4.472;2023-03-01T03:01:55;3.40;83.35
66670;DHT22;53568;52.164;4.472;2023-03-01T03:04:21;3.28;83.80
66670;DHT22;53568;52.164;4.472;2023-03-01T03:06:49;3.26;83.43
66670;DHT22;53568;52.164;4.472;2023-03-01T03:09:16;3.40;83.20
66670;DHT22;53568;52.164;4.472;2023-03-01T03:11:42;3.38;82.86
66670;DHT22;53568;52.164;4.472;2023-03-01T03:14:13;3.58;82.42
66670;DHT22;53568;52.164;4.472;2023-03-01T03:16:45;3.48;82.63
66670;DHT22;53568;52.164;4.472;2023-03-01T03:19:11;3.46;82.27
66670;DHT22;53568;52.164;4.472;2023-03-01T03:21:38;3.42;82.66
66670;DHT22;53568;52.164;4.472;2023-03-01T03:24:04;3.46;82.48
66670;DHT22;53568;52.164;4.472;2023-03-01T03:26:30;3.59;82.26
66670;DHT22;53568;52.164;4.472;2023-03-01T03:28:56;3.56;82.23
66670;DHT22;53568;52.164;4.472;2023-03-01T03:31:23;3.49;82.65
66670;DHT22;53568;52.164;4.472;2023-03-01T03:33:49;3.62;82.37
66670;DHT22;53568;52.164;4.472;2023-03-01T03:36:20;3.63;82.18
66670;DHT22;53568;52.164;4.472;2023-03-01T03:38:47;3.62;82.54
66670;DHT22;53568;52.164;4.472;2023-03-01T03:41:12;3.55;82.70
66670;DHT22;53568;52.164;4.472;2023-03-01T03:43:40;3.63;82.53
66670;DHT22;53568;52.164;4.472;2023-03-01T03:46:06;3.63;82.60
66670;DHT22;53568;52.164;4.472;2023-03-01T03:48:38;3.58;82.66
66670;DHT22;53568;52.164;4.472;2023-03-01T03:51:04;3.48;83.14
66670;DHT22;53568;52.164;4.472;2023-03-01T03:53:33;3.43;83.45
66670;DHT22;53568;52.164;4.472;2023-03-01T03:55:59;3.32;83.55
66670;DHT22;53568;52.164;4.472;2023-03-01T03:58:25;3.21;83.65
66670;DHT22;53568;52.164;4.472;2023-03-01T04:00:54;3.31;83.88
66670;DHT22;53568;52.164;4.472;2023-03-01T04:03:25;3.13;84.13
66670;DHT22;53568;52.164;4.472;2023-03-01T04:05:51;3.22;84.28
66670;DHT22;53568;52.164;4.472;2023-03-01T04:08:18;3.25;83.86
66670;DHT22;53568;52.164;4.472;2023-03-01T04:10:48;3.32;83.95
66670;DHT22;53568;52.164;4.472;2023-03-01T04:13:17;3.33;83.97
66670;DHT22;53568;52.164;4.472;2023-03-01T04:15:45;3.32;83.92
66670;DHT22;53568;52.164;4.472;2023-03-01T04:18:13;3.33;83.62
66670;DHT22;53568;52.164;4.472;2023-03-01T04:20:39;3.38;83.65
66670;DHT22;53568;52.164;4.472;2023-03-01T04:23:09;3.45;83.55
66670;DHT22;53568;52.164;4.472;2023-03-01T04:25:58;3.38;83.56
66670;DHT22;53568;52.164;4.472;2023-03-01T04:28:28;3.48;83.29
66670;DHT22;53568;52.164;4.472;2023-03-01T04:30:56;3.52;83.05
66670;DHT22;53568;52.164;4.472;2023-03-01T04:33:24;3.58;82.64
66670;DHT22;53568;52.164;4.472;2023-03-01T04:35:50;3.66;82.49
66670;DHT22;53568;52.164;4.472;2023-03-01T04:38:17;3.67;82.63
66670;DHT22;53568;52.164;4.472;2023-03-01T04:40:42;3.72;82.44
66670;DHT22;53568;52.164;4.472;2023-03-01T04:43:09;3.76;82.18
66670;DHT22;53568;52.164;4.472;2023-03-01T04:45:35;3.76;82.21
66670;DHT22;53568;52.164;4.472;2023-03-01T04:48:02;3.80;82.05
66670;DHT22;53568;52.164;4.472;2023-03-01T04:50:28;3.79;81.82
66670;DHT22;53568;52.164;4.472;2023-03-01T04:52:53;3.76;81.75
66670;DHT22;53568;52.164;4.472;2023-03-01T04:55:19;3.83;81.44
66670;DHT22;53568;52.164;4.472;2023-03-01T04:57:44;3.83;81.32
66670;DHT22;53568;52.164;4.472;2023-03-01T05:00:12;3.82;81.48
66670;DHT22;53568;52.164;4.472;2023-03-01T05:02:56;3.86;81.28
66670;DHT22;53568;52.164;4.472;2023-03-01T05:05:28;3.91;81.06
66670;DHT22;53568;52.164;4.472;2023-03-01T05:07:59;3.94;80.56
66670;DHT22;53568;52.164;4.472;2023-03-01T05:10:27;3.76;80.55
66670;DHT22;53568;52.164;4.472;2023-03-01T05:12:55;3.25;81.97
66670;DHT22;53568;52.164;4.472;2023-03-01T05:15:23;3.32;82.13
66670;DHT22;53568;52.164;4.472;2023-03-01T05:17:54;3.33;82.09
66670;DHT22;53568;52.164;4.472;2023-03-01T05:20:20;3.29;82.11
66670;DHT22;53568;52.164;4.472;2023-03-01T05:22:55;3.28;81.97
66670;DHT22;53568;52.164;4.472;2023-03-01T05:25:22;3.22;82.41
66670;DHT22;53568;52.164;4.472;2023-03-01T05:27:47;3.22;82.42
66670;DHT22;53568;52.164;4.472;2023-03-01T05:30:13;3.21;82.62
66670;DHT22;53568;52.164;4.472;2023-03-01T05:32:41;3.19;82.51
66670;DHT22;53568;52.164;4.472;2023-03-01T05:35:09;3.29;82.04
66670;DHT22;53568;52.164;4.472;2023-03-01T05:37:42;3.35;81.80
66670;DHT22;53568;52.164;4.472;2023-03-01T05:40:11;3.36;81.52
66670;DHT22;53568;52.164;4.472;2023-03-01T05:42:52;3.40;81.21
66670;DHT22;53568;52.164;4.472;2023-03-01T05:45:19;3.53;80.95
66670;DHT22;53568;52.164;4.472;2023-03-01T05:47:46;3.53;80.71
66670;DHT22;53568;52.164;4.472;2023-03-01T05:50:25;3.58;80.52
66670;DHT22;53568;52.164;4.472;2023-03-01T05:52:57;3.56;80.36
66670;DHT22;53568;52.164;4.472;2023-03-01T05:55:23;3.56;80.26
66670;DHT22;53568;52.164;4.472;2023-03-01T05:57:49;3.62;80.00
66670;DHT22;53568;52.164;4.472;2023-03-01T06:00:19;3.66;79.49
66670;DHT22;53568;52.164;4.472;2023-03-01T06:02:47;3.67;79.13
66670;DHT22;53568;52.164;4.472;2023-03-01T06:05:13;3.69;79.33
66670;DHT22;53568;52.164;4.472;2023-03-01T06:07:39;3.76;79.05
66670;DHT22;53568;52.164;4.472;2023-03-01T06:10:06;3.76;78.83
66670;DHT22;53568;52.164;4.472;2023-03-01T06:12:34;3.79;77.35
66670;DHT22;53568;52.164;4.472;2023-03-01T06:15:00;3.55;77.77
66670;DHT22;53568;52.164;4.472;2023-03-01T06:17:29;3.25;78.41
66670;DHT22;53568;52.164;4.472;2023-03-01T06:19:55;3.38;78.23
66670;DHT22;53568;52.164;4.472;2023-03-01T06:22:20;3.48;77.88
66670;DHT22;53568;52.164;4.472;2023-03-01T06:24:46;3.53;76.94
66670;DHT22;53568;52.164;4.472;2023-03-01T06:27:11;3.58;76.23
66670;DHT22;53568;52.164;4.472;2023-03-01T06:29:37;3.60;75.25
66670;DHT22;53568;52.164;4.472;2023-03-01T06:32:03;3.56;74.42
66670;DHT22;53568;52.164;4.472;2023-03-01T06:34:29;3.55;74.31
66670;DHT22;53568;52.164;4.472;2023-03-01T06:36:55;3.52;74.42
66670;DHT22;53568;52.164;4.472;2023-03-01T06:39:20;3.52;74.87
66670;DHT22;53568;52.164;4.472;2023-03-01T06:41:46;3.60;74.82
66670;DHT22;53568;52.164;4.472;2023-03-01T06:44:11;3.55;74.94
66670;DHT22;53568;52.164;4.472;2023-03-01T06:46:38;3.62;74.68
66670;DHT22;53568;52.164;4.472;2023-03-01T06:49:03;3.67;74.67
66670;DHT22;53568;52.164;4.472;2023-03-01T06:51:33;3.70;74.47
66670;DHT22;53568;52.164;4.472;2023-03-01T06:53:58;3.69;74.49
66670;DHT22;53568;52.164;4.472;2023-03-01T06:56:24;3.69;74.57
66670;DHT22;53568;52.164;4.472;2023-03-01T06:58:49;3.80;74.30
66670;DHT22;53568;52.164;4.472;2023-03-01T07:01:15;3.85;74.14
66670;DHT22;53568;52.164;4.472;2023-03-01T07:03:40;3.85;74.04
66670;DHT22;53568;52.164;4.472;2023-03-01T07:06:06;3.85;74.30
66670;DHT22;53568;52.164;4.472;2023-03-01T07:08:31;3.86;74.04
66670;DHT22;53568;52.164;4.472;2023-03-01T07:10:58;3.89;74.12
66670;DHT22;53568;52.164;4.472;2023-03-01T07:13:24;3.79;74.11
66670;DHT22;53568;52.164;4.472;2023-03-01T07:15:49;3.75;74.42
66670;DHT22;53568;52.164;4.472;2023-03-01T07:18:15;3.73;75.00
66670;DHT22;53568;52.164;4.472;2023-03-01T07:20:40;3.69;75.34
66670;DHT22;53568;52.164;4.472;2023-03-01T07:23:06;3.86;75.06
66670;DHT22;53568;52.164;4.472;2023-03-01T07:25:32;3.60;75.06
66670;DHT22;53568;52.164;4.472;2023-03-01T07:27:59;3.80;75.33
66670;DHT22;53568;52.164;4.472;2023-03-01T07:30:25;3.89;75.46
66670;DHT22;53568;52.164;4.472;2023-03-01T07:32:53;3.85;75.47
66670;DHT22;53568;52.164;4.472;2023-03-01T07:35:20;3.80;75.93
66670;DHT22;53568;52.164;4.472;2023-03-01T07:37:45;3.77;75.94
66670;DHT22;53568;52.164;4.472;2023-03-01T07:40:11;3.77;76.79
66670;DHT22;53568;52.164;4.472;2023-03-01T07:42:37;4.03;76.59
66670;DHT22;53568;52.164;4.472;2023-03-01T07:45:05;4.04;77.15
66670;DHT22;53568;52.164;4.472;2023-03-01T07:47:31;4.09;77.42
66670;DHT22;53568;52.164;4.472;2023-03-01T07:49:56;4.07;77.91
66670;DHT22;53568;52.164;4.472;2023-03-01T07:52:22;4.21;77.45
66670;DHT22;53568;52.164;4.472;2023-03-01T07:54:47;4.31;77.67
66670;DHT22;53568;52.164;4.472;2023-03-01T07:57:13;4.18;78.01
66670;DHT22;53568;52.164;4.472;2023-03-01T07:59:38;4.25;78.61
66670;DHT22;53568;52.164;4.472;2023-03-01T08:02:05;4.30;78.82
66670;DHT22;53568;52.164;4.472;2023-03-01T08:04:30;4.40;78.84
66670;DHT22;53568;52.164;4.472;2023-03-01T08:06:56;4.38;78.95
66670;DHT22;53568;52.164;4.472;2023-03-01T08:09:22;4.47;78.92
66670;DHT22;53568;52.164;4.472;2023-03-01T08:11:47;4.54;78.93
66670;DHT22;53568;52.164;4.472;2023-03-01T08:14:13;4.67;78.79
66670;DHT22;53568;52.164;4.472;2023-03-01T08:16:38;4.78;78.63
66670;DHT22;53568;52.164;4.472;2023-03-01T08:19:06;4.91;78.11
66670;DHT22;53568;52.164;4.472;2023-03-01T08:21:32;4.92;78.08
66670;DHT22;53568;52.164;4.472;2023-03-01T08:24:04;5.11;78.18
66670;DHT22;53568;52.164;4.472;2023-03-01T08:26:31;5.30;77.32
66670;DHT22;53568;52.164;4.472;2023-03-01T08:28:57;5.42;76.87
66670;DHT22;53568;52.164;4.472;2023-03-01T08:31:33;5.54;75.97
66670;DHT22;53568;52.164;4.472;2023-03-01T08:34:04;5.60;75.49
66670;DHT22;53568;52.164;4.472;2023-03-01T08:36:33;5.70;75.19
66670;DHT22;53568;52.164;4.472;2023-03-01T08:39:00;5.74;74.99
66670;DHT22;53568;52.164;4.472;2023-03-01T08:41:25;5.77;75.03
66670;DHT22;53568;52.164;4.472;2023-03-01T08:43:51;5.70;74.85
66670;DHT22;53568;52.164;4.472;2023-03-01T08:46:18;5.74;74.72
66670;DHT22;53568;52.164;4.472;2023-03-01T08:48:43;5.83;74.68
66670;DHT22;53568;52.164;4.472;2023-03-01T08:51:14;5.84;74.39
66670;DHT22;53568;52.164;4.472;2023-03-01T08:53:40;5.86;74.46
66670;DHT22;53568;52.164;4.472;2023-03-01T08:56:07;5.94;74.21
66670;DHT22;53568;52.164;4.472;2023-03-01T08:58:33;5.90;74.26
66670;DHT22;53568;52.164;4.472;2023-03-01T09:00:59;5.83;74.19
66670;DHT22;53568;52.164;4.472;2023-03-01T09:03:25;5.73;74.40
66670;DHT22;53568;52.164;4.472;2023-03-01T09:05:52;5.71;74.51
66670;DHT22;53568;52.164;4.472;2023-03-01T09:08:19;5.69;74.74
66670;DHT22;53568;52.164;4.472;2023-03-01T09:10:45;5.80;74.33
66670;DHT22;53568;52.164;4.472;2023-03-01T09:13:11;5.83;74.38
66670;DHT22;53568;52.164;4.472;2023-03-01T09:15:37;5.76;73.90
66670;DHT22;53568;52.164;4.472;2023-03-01T09:18:05;5.78;73.85
66670;DHT22;53568;52.164;4.472;2023-03-01T09:20:31;5.86;73.61
66670;DHT22;53568;52.164;4.472;2023-03-01T09:22:57;5.84;73.23
66670;DHT22;53568;52.164;4.472;2023-03-01T09:25:23;5.83;73.06
66670;DHT22;53568;52.164;4.472;2023-03-01T09:27:53;5.84;73.06
66670;DHT22;53568;52.164;4.472;2023-03-01T09:30:19;5.90;73.25
66670;DHT22;53568;52.164;4.472;2023-03-01T09:32:45;5.96;73.08
66670;DHT22;53568;52.164;4.472;2023-03-01T09:35:11;5.90;72.60
66670;DHT22;53568;52.164;4.472;2023-03-01T09:37:37;5.96;72.62
66670;DHT22;53568;52.164;4.472;2023-03-01T09:40:08;5.96;72.97
66670;DHT22;53568;52.164;4.472;2023-03-01T09:42:49;5.93;73.19
66670;DHT22;53568;52.164;4.472;2023-03-01T09:45:26;5.87;73.44
66670;DHT22;53568;52.164;4.472;2023-03-01T09:47:53;5.97;73.24
66670;DHT22;53568;52.164;4.472;2023-03-01T09:50:20;5.97;73.46
66670;DHT22;53568;52.164;4.472;2023-03-01T09:52:47;6.04;73.78
66670;DHT22;53568;52.164;4.472;2023-03-01T09:55:31;5.76;73.93
66670;DHT22;53568;52.164;4.472;2023-03-01T10:00:43;5.87;73.18
66670;DHT22;53568;52.164;4.472;2023-03-01T10:06:08;5.78;71.96
66670;DHT22;53568;52.164;4.472;2023-03-01T10:08:48;5.74;72.25
66670;DHT22;53568;52.164;4.472;2023-03-01T10:11:38;5.66;73.14
66670;DHT22;53568;52.164;4.472;2023-03-01T10:16:53;5.62;72.98
66670;DHT22;53568;52.164;4.472;2023-03-01T10:19:31;5.67;72.85
66670;DHT22;53568;52.164;4.472;2023-03-01T10:22:04;5.56;71.71
66670;DHT22;53568;52.164;4.472;2023-03-01T10:24:35;5.66;71.58
66670;DHT22;53568;52.164;4.472;2023-03-01T10:27:14;5.56;71.95
66670;DHT22;53568;52.164;4.472;2023-03-01T10:32:17;5.50;72.72
66670;DHT22;53568;52.164;4.472;2023-03-01T10:34:44;5.52;71.42
66670;DHT22;53568;52.164;4.472;2023-03-01T10:37:16;5.60;69.37
66670;DHT22;53568;52.164;4.472;2023-03-01T10:40:08;5.78;67.03
66670;DHT22;53568;52.164;4.472;2023-03-01T10:42:38;5.86;66.51
66670;DHT22;53568;52.164;4.472;2023-03-01T10:50:40;6.14;65.70
66670;DHT22;53568;52.164;4.472;2023-03-01T10:55:58;6.10;64.98
66670;DHT22;53568;52.164;4.472;2023-03-01T10:58:24;6.13;65.13
66670;DHT22;53568;52.164;4.472;2023-03-01T11:01:02;6.22;63.14
66670;DHT22;53568;52.164;4.472;2023-03-01T11:03:32;6.28;65.17
66670;DHT22;53568;52.164;4.472;2023-03-01T11:08:43;6.38;66.62
66670;DHT22;53568;52.164;4.472;2023-03-01T11:13:54;6.18;66.17
66670;DHT22;53568;52.164;4.472;2023-03-01T11:16:40;6.30;65.14
66670;DHT22;53568;52.164;4.472;2023-03-01T11:21:39;6.58;64.83
66670;DHT22;53568;52.164;4.472;2023-03-01T11:24:12;6.27;64.83
66670;DHT22;53568;52.164;4.472;2023-03-01T11:26:47;6.11;64.68
66670;DHT22;53568;52.164;4.472;2023-03-01T11:29:21;6.27;65.09
66670;DHT22;53568;52.164;4.472;2023-03-01T11:31:53;6.41;65.32
66670;DHT22;53568;52.164;4.472;2023-03-01T11:40:24;6.62;61.95
66670;DHT22;53568;52.164;4.472;2023-03-01T11:43:01;6.51;63.04
66670;DHT22;53568;52.164;4.472;2023-03-01T11:48:17;6.65;61.54
66670;DHT22;53568;52.164;4.472;2023-03-01T11:50:52;6.84;61.64
66670;DHT22;53568;52.164;4.472;2023-03-01T12:04:16;6.96;53.50
66670;DHT22;53568;52.164;4.472;2023-03-01T12:06:50;6.92;49.72
66670;DHT22;53568;52.164;4.472;2023-03-01T12:09:36;7.19;48.81
66670;DHT22;53568;52.164;4.472;2023-03-01T12:12:30;7.44;48.15
66670;DHT22;53568;52.164;4.472;2023-03-01T12:17:56;7.73;48.22
66670;DHT22;53568;52.164;4.472;2023-03-01T12:34:28;7.73;48.81
66670;DHT22;53568;52.164;4.472;2023-03-01T12:45:50;7.46;52.21
66670;DHT22;53568;52.164;4.472;2023-03-01T12:51:20;7.43;51.83
66670;DHT22;53568;52.164;4.472;2023-03-01T12:53:50;7.49;51.23
66670;DHT22;53568;52.164;4.472;2023-03-01T12:56:23;7.53;50.84
66670;DHT22;53568;52.164;4.472;2023-03-01T13:04:58;7.44;50.82
66670;DHT22;53568;52.164;4.472;2023-03-01T13:07:55;7.36;51.19
66670;DHT22;53568;52.164;4.472;2023-03-01T13:10:39;7.77;50.03
66670;DHT22;53568;52.164;4.472;2023-03-01T13:13:14;7.99;48.94
66670;DHT22;53568;52.164;4.472;2023-03-01T13:15:40;7.91;48.82
66670;DHT22;53568;52.164;4.472;2023-03-01T13:23:27;8.29;48.34
66670;DHT22;53568;52.164;4.472;2023-03-01T13:29:11;8.04;48.26
66670;DHT22;53568;52.164;4.472;2023-03-01T13:33:56;7.94;49.86
66670;DHT22;53568;52.164;4.472;2023-03-01T13:38:57;7.93;50.65
66670;DHT22;53568;52.164;4.472;2023-03-01T13:47:13;8.17;50.05
66670;DHT22;53568;52.164;4.472;2023-03-01T13:54:56;8.29;50.32
66670;DHT22;53568;52.164;4.472;2023-03-01T13:57:27;8.28;50.30
66670;DHT22;53568;52.164;4.472;2023-03-01T13:59:54;8.15;50.11
66670;DHT22;53568;52.164;4.472;2023-03-01T14:02:19;8.11;50.28
66670;DHT22;53568;52.164;4.472;2023-03-01T14:04:59;7.93;50.55
66670;DHT22;53568;52.164;4.472;2023-03-01T14:07:26;7.93;50.50
66670;DHT22;53568;52.164;4.472;2023-03-01T14:10:02;7.59;51.51
66670;DHT22;53568;52.164;4.472;2023-03-01T14:18:47;7.90;50.59
66670;DHT22;53568;52.164;4.472;2023-03-01T14:21:17;8.08;49.79
66670;DHT22;53568;52.164;4.472;2023-03-01T14:23:43;7.93;50.14
66670;DHT22;53568;52.164;4.472;2023-03-01T14:26:10;7.93;50.48
66670;DHT22;53568;52.164;4.472;2023-03-01T14:28:38;7.94;48.90
66670;DHT22;53568;52.164;4.472;2023-03-01T14:31:37;7.81;49.19
66670;DHT22;53568;52.164;4.472;2023-03-01T14:34:03;7.83;49.83
66670;DHT22;53568;52.164;4.472;2023-03-01T14:36:33;7.93;50.45
66670;DHT22;53568;52.164;4.472;2023-03-01T14:38:59;7.91;50.65
66670;DHT22;53568;52.164;4.472;2023-03-01T14:41:33;8.01;49.90
66670;DHT22;53568;52.164;4.472;2023-03-01T14:44:03;7.97;50.28
66670;DHT22;53568;52.164;4.472;2023-03-01T14:46:36;7.87;50.42
66670;DHT22;53568;52.164;4.472;2023-03-01T14:51:46;8.35;49.07
66670;DHT22;53568;52.164;4.472;2023-03-01T14:54:40;8.44;48.36
66670;DHT22;53568;52.164;4.472;2023-03-01T14:57:15;8.22;48.78
66670;DHT22;53568;52.164;4.472;2023-03-01T14:59:43;7.99;49.62
66670;DHT22;53568;52.164;4.472;2023-03-01T15:02:17;7.84;50.46
66670;DHT22;53568;52.164;4.472;2023-03-01T15:05:00;7.90;50.73
66670;DHT22;53568;52.164;4.472;2023-03-01T15:07:30;7.83;51.09
66670;DHT22;53568;52.164;4.472;2023-03-01T15:09:58;7.87;51.58
66670;DHT22;53568;52.164;4.472;2023-03-01T15:12:44;7.84;51.22
66670;DHT22;53568;52.164;4.472;2023-03-01T15:17:59;7.94;50.49
66670;DHT22;53568;52.164;4.472;2023-03-01T15:20:27;7.88;50.37
66670;DHT22;53568;52.164;4.472;2023-03-01T15:22:57;7.85;50.65
66670;DHT22;53568;52.164;4.472;2023-03-01T15:25:28;7.90;50.96
66670;DHT22;53568;52.164;4.472;2023-03-01T15:27:57;8.15;50.71
66670;DHT22;53568;52.164;4.472;2023-03-01T15:30:32;8.28;49.42
66670;DHT22;53568;52.164;4.472;2023-03-01T15:35:50;8.11;48.59
66670;DHT22;53568;52.164;4.472;2023-03-01T15:38:53;8.01;48.91
66670;DHT22;53568;52.164;4.472;2023-03-01T15:43:48;7.78;51.72
66670;DHT22;53568;52.164;4.472;2023-03-01T15:46:33;7.95;51.79
66670;DHT22;53568;52.164;4.472;2023-03-01T15:49:02;7.80;52.60
66670;DHT22;53568;52.164;4.472;2023-03-01T15:51:32;7.90;52.22
66670;DHT22;53568;52.164;4.472;2023-03-01T15:54:17;7.88;52.32
66670;DHT22;53568;52.164;4.472;2023-03-01T15:56:43;7.85;52.62
66670;DHT22;53568;52.164;4.472;2023-03-01T15:59:11;7.85;52.63
66670;DHT22;53568;52.164;4.472;2023-03-01T16:01:38;7.77;52.70
66670;DHT22;53568;52.164;4.472;2023-03-01T16:04:04;7.61;53.13
66670;DHT22;53568;52.164;4.472;2023-03-01T16:06:29;7.80;52.85
66670;DHT22;53568;52.164;4.472;2023-03-01T16:08:55;7.95;51.91
66670;DHT22;53568;52.164;4.472;2023-03-01T16:11:20;7.85;52.26
66670;DHT22;53568;52.164;4.472;2023-03-01T16:13:46;7.88;51.93
66670;DHT22;53568;52.164;4.472;2023-03-01T16:16:13;7.81;52.29
66670;DHT22;53568;52.164;4.472;2023-03-01T16:18:46;7.83;52.52
66670;DHT22;53568;52.164;4.472;2023-03-01T16:21:23;7.94;52.63
66670;DHT22;53568;52.164;4.472;2023-03-01T16:23:50;7.94;53.08
66670;DHT22;53568;52.164;4.472;2023-03-01T16:26:17;7.99;52.65
66670;DHT22;53568;52.164;4.472;2023-03-01T16:28:45;7.90;53.31
66670;DHT22;53568;52.164;4.472;2023-03-01T16:31:11;7.90;53.57
66670;DHT22;53568;52.164;4.472;2023-03-01T16:33:37;7.98;53.14
66670;DHT22;53568;52.164;4.472;2023-03-01T16:36:11;7.87;53.29
66670;DHT22;53568;52.164;4.472;2023-03-01T16:38:37;7.90;53.42
66670;DHT22;53568;52.164;4.472;2023-03-01T16:41:04;7.90;53.49
66670;DHT22;53568;52.164;4.472;2023-03-01T16:43:30;7.85;53.49
66670;DHT22;53568;52.164;4.472;2023-03-01T16:45:56;7.83;53.31
66670;DHT22;53568;52.164;4.472;2023-03-01T16:48:22;7.71;53.45
66670;DHT22;53568;52.164;4.472;2023-03-01T16:50:58;7.71;53.72
66670;DHT22;53568;52.164;4.472;2023-03-01T16:53:26;7.75;53.46
66670;DHT22;53568;52.164;4.472;2023-03-01T16:55:58;7.71;53.90
66670;DHT22;53568;52.164;4.472;2023-03-01T16:58:24;7.67;53.54
66670;DHT22;53568;52.164;4.472;2023-03-01T17:00:54;7.71;53.74
66670;DHT22;53568;52.164;4.472;2023-03-01T17:03:23;7.66;53.85
66670;DHT22;53568;52.164;4.472;2023-03-01T17:05:49;7.57;54.09
66670;DHT22;53568;52.164;4.472;2023-03-01T17:08:16;7.56;54.34
66670;DHT22;53568;52.164;4.472;2023-03-01T17:10:42;7.53;54.12
66670;DHT22;53568;52.164;4.472;2023-03-01T17:13:09;7.46;54.00
66670;DHT22;53568;52.164;4.472;2023-03-01T17:15:39;7.40;54.03
66670;DHT22;53568;52.164;4.472;2023-03-01T17:18:05;7.39;53.78
66670;DHT22;53568;52.164;4.472;2023-03-01T17:20:31;7.27;54.28
66670;DHT22;53568;52.164;4.472;2023-03-01T17:22:56;7.34;53.81
66670;DHT22;53568;52.164;4.472;2023-03-01T17:25:23;7.17;54.71
66670;DHT22;53568;52.164;4.472;2023-03-01T17:27:48;7.31;54.27
66670;DHT22;53568;52.164;4.472;2023-03-01T17:30:14;7.29;54.25
66670;DHT22;53568;52.164;4.472;2023-03-01T17:32:40;7.23;54.64
66670;DHT22;53568;52.164;4.472;2023-03-01T17:35:06;7.20;54.85
66670;DHT22;53568;52.164;4.472;2023-03-01T17:37:32;7.33;54.44
66670;DHT22;53568;52.164;4.472;2023-03-01T17:39:58;7.34;54.59
66670;DHT22;53568;52.164;4.472;2023-03-01T17:42:23;7.37;54.81
66670;DHT22;53568;52.164;4.472;2023-03-01T17:44:49;7.42;54.83
66670;DHT22;53568;52.164;4.472;2023-03-01T17:47:14;7.43;54.90
66670;DHT22;53568;52.164;4.472;2023-03-01T17:49:40;7.37;54.97
66670;DHT22;53568;52.164;4.472;2023-03-01T17:52:06;7.39;54.70
66670;DHT22;53568;52.164;4.472;2023-03-01T17:54:32;7.36;54.74
66670;DHT22;53568;52.164;4.472;2023-03-01T17:56:58;7.39;54.51
66670;DHT22;53568;52.164;4.472;2023-03-01T17:59:24;7.36;54.66
66670;DHT22;53568;52.164;4.472;2023-03-01T18:01:56;7.31;54.99
66670;DHT22;53568;52.164;4.472;2023-03-01T18:04:22;7.23;55.28
66670;DHT22;53568;52.164;4.472;2023-03-01T18:06:48;7.16;55.11
66670;DHT22;53568;52.164;4.472;2023-03-01T18:09:13;7.29;55.14